createdAt,value
2018-09-01T00:05:42.916Z,21.26
2018-09-01T00:11:37.927Z,19.93
2018-09-01T00:17:32.944Z,20.96
2018-09-01T00:23:27.947Z,21.19
2018-09-01T00:29:22.924Z,18.3
2018-09-01T00:35:17.945Z,19.72
2018-09-01T00:41:12.985Z,18.99
2018-09-01T00:47:07.951Z,20.6
2018-09-01T00:53:02.953Z,19.34
2018-09-01T00:58:57.977Z,19.59
2018-09-01T01:04:52.954Z,17.4
2018-09-01T01:10:47.959Z,16.1
2018-09-01T01:16:43.067Z,15.57
2018-09-01T01:22:37.987Z,21.47
2018-09-01T01:28:33.012Z,20.42
2018-09-01T01:34:28.057Z,16
2018-09-01T01:40:23.007Z,17.83
2018-09-01T01:46:18.016Z,15.11
2018-09-01T01:52:12.991Z,18.5
2018-09-01T01:58:08.032Z,16.13
2018-09-01T02:04:03.053Z,16.81
2018-09-01T02:09:58.012Z,18.65
2018-09-01T02:15:53.041Z,17.46
2018-09-01T02:21:48.036Z,15.35
2018-09-01T02:27:43.039Z,21.61
2018-09-01T02:33:38.043Z,25.83
2018-09-01T02:39:33.095Z,17.48
2018-09-01T02:45:28.092Z,19.31
2018-09-01T02:51:23.059Z,19.49
2018-09-01T02:57:18.085Z,17.67
2018-09-01T03:03:13.061Z,20.54
2018-09-01T03:09:08.083Z,17.71
2018-09-01T03:15:03.134Z,19.4
2018-09-01T03:20:58.102Z,16.67
2018-09-01T03:26:53.103Z,18.04
2018-09-01T03:32:48.106Z,16.68
2018-09-01T03:38:43.130Z,16.4
2018-09-01T03:44:38.124Z,17.22
2018-09-01T03:50:33.163Z,16.83
2018-09-01T03:56:28.156Z,13.18
2018-09-01T04:02:23.164Z,19.33
2018-09-01T04:08:18.206Z,17.99
2018-09-01T04:14:13.155Z,17.82
2018-09-01T04:20:08.169Z,12.68
2018-09-01T04:26:03.149Z,14.05
2018-09-01T04:31:58.186Z,18.05
2018-09-01T04:37:53.181Z,16.55
2018-09-01T04:43:48.270Z,19.55
2018-09-01T04:49:43.173Z,20.24
2018-09-01T04:55:38.177Z,17.15
2018-09-01T05:01:33.189Z,19.87
2018-09-01T05:07:28.198Z,17.47
2018-09-01T05:13:23.200Z,18.98
2018-09-01T05:19:18.195Z,16.99
2018-09-01T05:25:13.227Z,32.57
2018-09-01T05:31:08.263Z,12.73
2018-09-01T05:37:03.234Z,11.9
2018-09-01T05:42:58.251Z,10.04
2018-09-01T05:48:53.246Z,7.65
2018-09-01T05:54:48.260Z,8.91
2018-09-01T06:00:43.251Z,8.13
2018-09-01T06:06:38.243Z,9.54
2018-09-01T06:12:33.261Z,10.02
2018-09-01T06:18:28.263Z,7.89
2018-09-01T06:24:23.278Z,9.21
2018-09-01T06:30:18.353Z,8.21
2018-09-01T06:36:13.286Z,7.27
2018-09-01T06:42:08.304Z,8.42
2018-09-01T06:48:03.295Z,10.51
2018-09-01T06:53:58.339Z,12.1
2018-09-01T06:59:53.313Z,8.82
2018-09-01T07:05:48.329Z,8.03
2018-09-01T07:11:43.319Z,7.42
2018-09-01T07:17:38.320Z,5.67
2018-09-01T07:23:33.320Z,7.22
2018-09-01T07:29:28.322Z,5.46
2018-09-01T07:35:23.358Z,6.64
2018-09-01T07:41:18.331Z,6.71
2018-09-01T07:47:13.373Z,6.23
2018-09-01T07:53:08.358Z,5.76
2018-09-01T07:59:03.378Z,6.11
2018-09-01T08:04:58.370Z,6.39
2018-09-01T08:10:53.348Z,8.01
2018-09-01T08:16:48.390Z,7.58
2018-09-01T08:22:43.437Z,6.66
2018-09-01T08:28:38.370Z,6.36
2018-09-01T08:34:33.472Z,9.58
2018-09-01T08:40:28.420Z,8.2
2018-09-01T08:46:23.413Z,8.39
2018-09-01T08:52:18.417Z,9.97
2018-09-01T08:58:13.455Z,9.18
2018-09-01T09:04:08.399Z,10.7
2018-09-01T09:10:03.508Z,12.86
2018-09-01T09:15:58.465Z,10.48
2018-09-01T09:21:53.438Z,12.2
2018-09-01T09:27:48.495Z,13.77
2018-09-01T09:33:43.466Z,9.59
2018-09-01T09:39:38.457Z,9.49
2018-09-01T09:45:33.495Z,12.37
2018-09-01T09:51:28.541Z,13.44
2018-09-01T09:57:23.495Z,10.25
2018-09-01T10:03:18.492Z,9.14
2018-09-01T10:09:13.531Z,10.75
2018-09-01T10:15:08.491Z,8.42
2018-09-01T10:21:03.491Z,7.99
2018-09-01T10:26:58.521Z,9.93
2018-09-01T10:32:53.509Z,7.77
2018-09-01T10:38:48.501Z,12
2018-09-01T10:44:43.506Z,9.43
2018-09-01T10:50:38.516Z,6.44
2018-09-01T10:56:33.533Z,8.71
2018-09-01T11:02:28.560Z,10.61
2018-09-01T11:08:23.533Z,10.15
2018-09-01T11:14:18.540Z,8.69
2018-09-01T11:20:13.605Z,7.85
2018-09-01T11:26:08.544Z,10.37
2018-09-01T11:32:03.565Z,7.97
2018-09-01T11:37:58.606Z,9.19
2018-09-01T11:43:53.621Z,12.71
2018-09-01T11:49:48.633Z,8.35
2018-09-01T11:55:43.607Z,8.5
2018-09-01T12:01:38.614Z,11.03
2018-09-01T12:07:33.611Z,10.45
2018-09-01T12:13:28.650Z,6.76
2018-09-01T12:19:23.625Z,10.69
2018-09-01T12:25:18.604Z,9.14
2018-09-01T12:31:13.696Z,8.75
2018-09-01T12:37:08.952Z,8.17
2018-09-01T12:43:03.636Z,11.85
2018-09-01T12:48:58.628Z,6.72
2018-09-01T12:54:53.636Z,8.53
2018-09-01T13:00:48.697Z,5.77
2018-09-01T13:06:43.705Z,6.5
2018-09-01T13:12:38.719Z,5.63
2018-09-01T13:18:33.664Z,6.68
2018-09-01T13:24:28.727Z,9.94
2018-09-01T13:30:23.683Z,6.11
2018-09-01T13:36:18.676Z,32.82
2018-09-01T13:42:13.667Z,4.28
2018-09-01T13:48:08.690Z,4.79
2018-09-01T13:54:03.731Z,7.87
2018-09-01T13:59:58.761Z,11.29
2018-09-01T14:05:53.725Z,5.16
2018-09-01T14:11:48.751Z,6.29
2018-09-01T14:17:43.724Z,3.73
2018-09-01T14:23:38.738Z,3.97
2018-09-01T14:29:33.748Z,4.57
2018-09-01T14:35:28.758Z,5.51
2018-09-01T14:41:23.743Z,5.49
2018-09-01T14:47:18.846Z,6.69
2018-09-01T14:53:13.811Z,4.68
2018-09-01T14:59:08.851Z,6.02
2018-09-01T15:05:03.796Z,5.92
2018-09-01T15:10:58.811Z,5.15
2018-09-01T15:16:53.829Z,5.63
2018-09-01T15:22:48.809Z,6.49
2018-09-01T15:28:43.785Z,6.36
2018-09-01T15:34:38.830Z,4.45
2018-09-01T15:40:33.814Z,8.57
2018-09-01T15:46:28.847Z,8.4
2018-09-01T15:52:23.822Z,12
2018-09-01T15:58:18.831Z,14.58
2018-09-01T16:04:13.823Z,7.72
2018-09-01T16:10:08.850Z,7.07
2018-09-01T16:16:03.841Z,5.89
2018-09-01T16:21:58.845Z,6.79
2018-09-01T16:27:53.842Z,4.95
2018-09-01T16:33:48.855Z,7.45
2018-09-01T16:39:43.878Z,5.15
2018-09-01T16:45:38.925Z,4.98
2018-09-01T16:51:33.891Z,4.17
2018-09-01T16:57:28.904Z,4.44
2018-09-01T17:03:23.906Z,5.11
2018-09-01T17:09:18.941Z,4.19
2018-09-01T17:15:13.923Z,4.15
2018-09-01T17:21:08.910Z,4.84
2018-09-01T17:27:03.973Z,6.07
2018-09-01T17:32:58.918Z,5.5
2018-09-01T17:38:53.931Z,4.19
2018-09-01T17:44:48.924Z,6.16
2018-09-01T17:50:43.984Z,6.63
2018-09-01T17:56:39.034Z,4.74
2018-09-01T18:02:33.983Z,5.4
2018-09-01T18:08:28.952Z,4.22
2018-09-01T18:14:23.955Z,5.36
2018-09-01T18:20:19.026Z,8.37
2018-09-01T18:26:14.027Z,6.04
2018-09-01T18:32:09.031Z,7.85
2018-09-01T18:38:04.040Z,6.01
2018-09-01T18:43:59.011Z,7.03
2018-09-01T18:49:54.043Z,5.03
2018-09-01T18:55:49.217Z,6.95
2018-09-01T19:01:44.073Z,6.06
2018-09-01T19:07:39.098Z,5.33
2018-09-01T19:13:34.053Z,6.1
2018-09-01T19:19:29.030Z,5.41
2018-09-01T19:25:24.030Z,5.93
2018-09-01T19:31:19.044Z,4.85
2018-09-01T19:37:14.064Z,5
2018-09-01T19:43:09.057Z,5.9
2018-09-01T19:49:04.071Z,5.59
2018-09-01T19:54:59.080Z,5.07
2018-09-01T20:00:54.071Z,17.52
2018-09-01T20:06:49.073Z,5.42
2018-09-01T20:12:44.062Z,5.44
2018-09-01T20:18:39.139Z,5.73
2018-09-01T20:24:34.109Z,5.39
2018-09-01T20:30:29.110Z,5.66
2018-09-01T20:36:24.155Z,5.99
2018-09-01T20:42:19.102Z,5.63
2018-09-01T20:48:14.153Z,6.6
2018-09-01T20:54:09.146Z,6.59
2018-09-01T21:00:04.288Z,4.17
2018-09-01T21:05:59.130Z,4.89
2018-09-01T21:11:54.130Z,6.9
2018-09-01T21:17:49.151Z,6.14
2018-09-01T21:23:44.165Z,4.44
2018-09-01T21:29:39.167Z,5.03
2018-09-01T21:35:34.151Z,6.63
2018-09-01T21:41:29.183Z,7.83
2018-09-01T21:47:24.200Z,5.87
2018-09-01T21:53:19.174Z,6.19
2018-09-01T21:59:14.203Z,6.64
2018-09-01T22:05:09.230Z,6.03
2018-09-01T22:11:04.165Z,4.73
2018-09-01T22:16:59.183Z,5.42
2018-09-01T22:22:54.198Z,5.34
2018-09-01T22:28:49.208Z,6.53
2018-09-01T22:34:44.213Z,6.32
2018-09-01T22:40:39.229Z,5.92
2018-09-01T22:46:34.235Z,6.3
2018-09-01T22:52:29.223Z,5.25
2018-09-01T22:58:24.256Z,5.19
2018-09-01T23:04:19.241Z,5.63
2018-09-01T23:10:14.241Z,5.58
2018-09-01T23:16:09.279Z,8.79
2018-09-01T23:22:04.300Z,7
2018-09-01T23:27:59.257Z,5.78
2018-09-01T23:33:54.293Z,7.43
2018-09-01T23:39:49.328Z,7.88
2018-09-01T23:45:44.328Z,4.59
2018-09-01T23:51:39.274Z,8.24
2018-09-01T23:57:34.313Z,8.26
